Terminal Aerodrome Forecast
Issued by NWS Cleveland, OH

Home | Current Version | Previous Version | Text Only | Print | Product List | Glossary On
Versions: 1 2 3 4 5 6 7 8 9 10 11 12 13 14 15 16 17
000
FTUS41 KCLE 061852 AAB
TAFERI
TAF AMD
KERI 061852Z 0619/0718 35006KT P6SM VCSH SCT040 BKN120
      TEMPO 0619/0623 4SM -TSRA SCT025 OVC050CB
     FM070100 18006KT P6SM VCSH SCT060 BKN120
     FM071100 19011KT P6SM SCT100 BKN250=

USA.gov is the U.S. government's official web portal to all federal, state and local government web resources and services.